Time;durP1;ratioP1;P1;durP2;ratioP2;P2;SDS_P1;SDS_P2;PMS_P1;PMS_P2;Temp;Humidity;BMP_temperature;BMP_pressure;BME280_temperature;BME280_humidity;BME280_pressure;Samples;Min_cycle;Max_cycle;Signal;HPM_P1;HPM_P2
2022/06/13 00:01:03;;;;;;;4.63;2.05;;;;;;;19.53;46.42;100604.44;5045560;28;20049;-68
2022/06/13 00:03:29;;;;;;;9.40;2.20;;;;;;;19.51;46.80;100608.25;5050902;28;20452;-68
2022/06/13 00:05:56;;;;;;;7.28;2.03;;;;;;;19.44;46.70;100615.03;5055626;28;20110;-68
2022/06/13 00:08:22;;;;;;;4.95;1.90;;;;;;;19.43;47.35;100606.13;5047930;28;20516;-68
2022/06/13 00:10:49;;;;;;;5.95;1.98;;;;;;;19.36;47.21;100602.22;5049448;28;20098;-68
2022/06/13 00:13:16;;;;;;;6.53;1.80;;;;;;;19.38;47.60;100610.16;5043216;28;20128;-68
2022/06/13 00:15:43;;;;;;;4.63;2.22;;;;;;;19.25;47.38;100578.06;5051352;28;20481;-68
2022/06/13 00:18:09;;;;;;;9.65;2.05;;;;;;;19.33;47.47;100613.22;5052878;28;20639;-68
2022/06/13 00:20:37;;;;;;;5.20;1.90;;;;;;;19.33;47.69;100609.69;5053523;28;20045;-68
2022/06/13 00:23:04;;;;;;;6.93;2.45;;;;;;;19.30;47.59;100620.66;5053871;28;20088;-68
2022/06/13 00:25:30;;;;;;;4.60;1.98;;;;;;;19.28;47.79;100626.16;5053151;28;20073;-69
2022/06/13 00:27:57;;;;;;;5.35;2.17;;;;;;;19.26;48.16;100623.59;5046219;28;20181;-68
2022/06/13 00:30:24;;;;;;;5.95;2.10;;;;;;;19.20;48.34;100617.88;5056836;28;20508;-69
2022/06/13 00:32:51;;;;;;;6.00;2.22;;;;;;;19.05;48.10;100592.19;5047207;28;20118;-68
2022/06/13 00:35:19;;;;;;;6.60;2.03;;;;;;;19.12;48.07;100620.28;5050734;28;20429;-68
2022/06/13 00:37:46;;;;;;;5.00;1.90;;;;;;;19.08;48.53;100629.53;5057085;28;20060;-68
2022/06/13 00:40:13;;;;;;;6.32;2.25;;;;;;;19.02;48.64;100636.28;5035353;28;20140;-68
2022/06/13 00:42:41;;;;;;;6.45;2.50;;;;;;;18.98;48.62;100629.44;5052646;28;20832;-69
2022/06/13 00:45:16;;;;;;;5.25;2.45;;;;;;;18.93;48.94;100636.97;5046775;28;20061;-68
2022/06/13 00:47:46;;;;;;;4.63;2.13;;;;;;;18.87;48.95;100637.47;5049891;28;20067;-68
2022/06/13 00:50:28;;;;;;;4.57;1.70;;;;;;;18.71;49.28;100620.84;5053492;28;20489;-67
2022/06/13 00:53:08;;;;;;;5.63;2.22;;;;;;;18.75;49.61;100639.25;5044843;28;20044;-68
2022/06/13 00:55:40;;;;;;;7.43;1.73;;;;;;;18.75;49.80;100654.47;5054965;28;20069;-68
2022/06/13 00:58:08;;;;;;;6.82;2.35;;;;;;;18.71;49.91;100647.66;5047969;28;20467;-68
2022/06/13 01:00:35;;;;;;;5.97;1.90;;;;;;;18.66;50.35;100649.84;5054290;28;20052;-68
2022/06/13 01:03:04;;;;;;;6.97;2.40;;;;;;;18.62;50.31;100646.53;5046454;28;20072;-67
2022/06/13 01:05:34;;;;;;;5.10;2.03;;;;;;;18.58;50.23;100636.97;5057141;28;20196;-68
2022/06/13 01:08:05;;;;;;;5.75;2.35;;;;;;;18.53;50.82;100639.16;5053531;28;20438;-68
2022/06/13 01:13:20;;;;;;;6.10;2.45;;;;;;;18.30;50.79;100619.44;5061709;28;20075;-67
2022/06/13 01:16:18;;;;;;;5.10;1.92;;;;;;;18.36;51.42;100643.13;5051232;28;20057;-69
2022/06/13 01:19:01;;;;;;;4.68;1.70;;;;;;;18.32;51.40;100641.63;5042823;28;20493;-68
2022/06/13 01:21:40;;;;;;;8.05;2.33;;;;;;;18.21;51.65;100646.94;5057710;28;20049;-67
2022/06/13 01:24:34;;;;;;;7.03;2.30;;;;;;;18.13;52.05;100647.50;5055119;28;20046;-67
2022/06/13 01:27:30;;;;;;;6.93;2.53;;;;;;;18.07;52.21;100658.72;5052660;28;20318;-68
2022/06/13 01:30:06;;;;;;;8.05;2.10;;;;;;;18.00;52.71;100657.44;5053237;28;20105;-68
2022/06/13 01:32:52;;;;;;;6.43;2.30;;;;;;;17.97;52.79;100662.16;5050191;28;20404;-68
2022/06/13 01:36:03;;;;;;;4.90;2.00;;;;;;;17.93;53.07;100658.88;5048199;28;20527;-67
2022/06/13 01:38:56;;;;;;;5.85;1.88;;;;;;;17.96;53.13;100666.66;5035783;28;20053;-69
2022/06/13 01:41:56;;;;;;;5.40;2.10;;;;;;;17.76;53.01;100646.69;5029287;28;20139;-67
2022/06/13 01:44:33;;;;;;;7.28;2.15;;;;;;;17.86;53.32;100662.94;5038562;28;20127;-68
2022/06/13 01:47:11;;;;;;;5.70;2.00;;;;;;;17.83;53.16;100671.19;5055471;28;20045;-68
2022/06/13 01:49:50;;;;;;;5.78;2.20;;;;;;;17.81;53.60;100671.31;5052716;28;20159;-68
2022/06/13 01:52:28;;;;;;;6.00;1.90;;;;;;;17.68;53.48;100656.25;5053750;28;20057;-68
2022/06/13 01:54:57;;;;;;;6.25;2.00;;;;;;;17.73;53.32;100665.66;5049533;28;20045;-68
2022/06/13 01:57:24;;;;;;;5.93;1.90;;;;;;;17.68;53.43;100669.63;5057015;28;20084;-67
2022/06/13 02:00:09;;;;;;;4.70;1.98;;;;;;;17.68;53.81;100666.97;5053067;28;20076;-68
2022/06/13 02:02:51;;;;;;;5.32;1.73;;;;;;;17.62;53.92;100641.47;5057518;28;20182;-68
2022/06/13 02:05:43;;;;;;;6.63;2.00;;;;;;;17.70;53.76;100649.81;5055315;28;20512;-67
2022/06/13 02:08:21;;;;;;;4.65;1.85;;;;;;;17.66;53.82;100648.31;5037673;28;20102;-68
2022/06/13 02:10:55;;;;;;;4.97;1.75;;;;;;;17.59;53.98;100651.53;5051675;28;20587;-68
2022/06/13 02:13:33;;;;;;;4.22;1.80;;;;;;;17.53;54.29;100639.44;5056287;28;20048;-68
2022/06/13 02:16:08;;;;;;;6.18;1.90;;;;;;;17.65;53.49;100660.00;5056774;28;20106;-68
2022/06/13 02:18:48;;;;;;;4.53;1.77;;;;;;;17.60;53.70;100664.81;5051787;28;20486;-68
2022/06/13 02:21:16;;;;;;;7.32;2.05;;;;;;;17.63;53.89;100663.75;5047025;28;20115;-68
2022/06/13 02:23:49;;;;;;;6.20;2.05;;;;;;;17.59;54.09;100668.47;5040508;28;20451;-68
2022/06/13 02:26:21;;;;;;;5.93;2.38;;;;;;;17.54;54.54;100667.91;5055979;28;20056;-68
2022/06/13 02:29:00;;;;;;;4.93;1.90;;;;;;;17.57;54.37;100667.72;5051642;28;20037;-68
2022/06/13 02:31:40;;;;;;;4.68;2.00;;;;;;;17.54;54.50;100651.84;5050953;28;20064;-68
2022/06/13 02:34:34;;;;;;;5.80;1.93;;;;;;;17.58;54.55;100653.34;5052671;28;20049;-68
2022/06/13 02:37:17;;;;;;;4.97;2.05;;;;;;;17.58;54.76;100655.16;5048529;28;20053;-68
2022/06/13 02:39:52;;;;;;;5.93;2.05;;;;;;;17.57;54.53;100654.31;5046000;28;20056;-67
2022/06/13 02:42:24;;;;;;;2.38;1.60;;;;;;;17.54;54.60;100649.19;5047674;28;20083;-68
2022/06/13 02:45:01;;;;;;;7.18;2.08;;;;;;;17.23;54.68;100596.13;5053076;28;20075;-68
2022/06/13 02:47:35;;;;;;;4.90;1.75;;;;;;;17.52;54.85;100651.09;5052856;28;20045;-68
2022/06/13 02:50:11;;;;;;;6.95;2.00;;;;;;;17.58;54.95;100649.81;5048190;28;20073;-68
2022/06/13 02:53:01;;;;;;;6.72;2.05;;;;;;;17.58;54.57;100656.03;5054252;28;20136;-68
2022/06/13 02:55:40;;;;;;;6.30;2.08;;;;;;;17.57;53.96;100638.25;5053927;28;20057;-68
2022/06/13 02:58:28;;;;;;;4.70;1.75;;;;;;;17.61;53.64;100646.94;5059260;28;20052;-68
2022/06/13 03:00:54;;;;;;;4.93;1.80;;;;;;;17.49;53.83;100632.56;5052701;28;20120;-68
2022/06/13 03:03:31;;;;;;;6.82;2.13;;;;;;;17.51;53.56;100649.38;5045063;28;20049;-68
2022/06/13 03:06:10;;;;;;;4.50;1.70;;;;;;;17.47;53.62;100651.41;5052780;28;20044;-68
2022/06/13 03:08:52;;;;;;;6.35;2.03;;;;;;;17.39;53.75;100658.31;5052543;28;20599;-68
2022/06/13 03:11:46;;;;;;;3.97;1.70;;;;;;;17.36;53.31;100656.69;5046920;28;20048;-68
2022/06/13 03:14:24;;;;;;;6.70;1.95;;;;;;;17.35;53.06;100657.66;5044248;28;20061;-67
2022/06/13 03:17:00;;;;;;;7.93;1.83;;;;;;;17.33;52.87;100661.41;5051937;28;20045;-68
2022/06/13 03:19:40;;;;;;;6.28;1.88;;;;;;;17.32;53.10;100667.72;5049987;28;20053;-68
2022/06/13 03:22:30;;;;;;;2.63;1.38;;;;;;;17.28;52.12;100664.44;5045184;28;20063;-68
2022/06/13 03:25:07;;;;;;;3.88;1.58;;;;;;;17.31;51.64;100684.78;5047199;28;20489;-68
2022/06/13 03:27:41;;;;;;;3.63;1.65;;;;;;;17.17;51.20;100661.63;5047560;28;20036;-68
2022/06/13 03:30:12;;;;;;;4.75;1.90;;;;;;;17.28;50.88;100674.28;5046767;28;20062;-68
2022/06/13 03:33:40;;;;;;;3.22;1.38;;;;;;;17.22;51.28;100674.69;5045767;28;20087;-67
2022/06/13 03:35:38;;;;;;;4.72;1.65;;;;;;;17.32;50.79;100689.13;5047658;28;20518;-68
2022/06/13 03:38:10;;;;;;;2.92;1.50;;;;;;;17.32;50.46;100686.44;5049683;28;20053;-68
2022/06/13 03:40:41;;;;;;;4.10;1.48;;;;;;;17.35;50.36;100691.59;5050815;28;20193;-68
2022/06/13 03:43:23;;;;;;;2.22;1.50;;;;;;;17.36;50.40;100696.00;5026863;28;20075;-67
2022/06/13 03:46:09;;;;;;;3.78;1.55;;;;;;;17.32;50.04;100702.50;5047249;28;20045;-68
2022/06/13 03:48:54;;;;;;;4.15;1.67;;;;;;;17.33;50.09;100697.06;5051593;28;20160;-69
2022/06/13 03:51:37;;;;;;;4.25;1.80;;;;;;;16.96;49.95;100637.25;5043895;28;20091;-67
2022/06/13 03:54:23;;;;;;;4.50;1.50;;;;;;;17.35;50.09;100707.66;5046064;28;20041;-67
2022/06/13 03:57:00;;;;;;;6.28;2.08;;;;;;;17.29;50.28;100710.78;5045469;28;20051;-68
2022/06/13 03:59:41;;;;;;;3.55;1.33;;;;;;;17.22;50.30;100710.34;5042497;28;20057;-68
2022/06/13 04:02:12;;;;;;;4.03;1.70;;;;;;;16.91;50.47;100665.25;5048785;28;20103;-68
2022/06/13 04:04:44;;;;;;;6.30;1.73;;;;;;;17.21;50.40;100697.06;5052707;28;20044;-69
2022/06/13 04:07:11;;;;;;;4.30;1.58;;;;;;;17.30;49.95;100720.53;5037155;28;20068;-67
2022/06/13 04:09:42;;;;;;;3.38;1.70;;;;;;;17.19;50.20;100702.53;5050008;28;20088;-69
2022/06/13 04:12:23;;;;;;;6.13;1.33;;;;;;;17.27;50.58;100720.75;5053444;28;20045;-68
2022/06/13 04:15:27;;;;;;;3.80;1.60;;;;;;;17.21;50.37;100723.81;5043204;28;20124;-68
2022/06/13 04:18:00;;;;;;;3.20;1.35;;;;;;;17.16;50.57;100719.63;5046114;28;20067;-70
2022/06/13 04:20:42;;;;;;;3.08;1.33;;;;;;;17.14;50.54;100726.94;5045359;28;20374;-68
2022/06/13 04:23:27;;;;;;;6.13;1.58;;;;;;;17.12;50.42;100720.84;5049589;28;20053;-69
2022/06/13 04:26:18;;;;;;;4.05;1.55;;;;;;;17.09;50.22;100723.72;5045310;28;20102;-69
2022/06/13 04:29:06;;;;;;;5.03;1.80;;;;;;;17.06;50.61;100734.63;5048009;28;20143;-68
2022/06/13 04:31:35;;;;;;;6.72;1.83;;;;;;;17.04;50.59;100731.19;5048527;28;20044;-68
2022/06/13 04:34:08;;;;;;;6.22;1.40;;;;;;;17.02;50.99;100732.25;5046085;28;20037;-68
2022/06/13 04:36:36;;;;;;;3.95;1.60;;;;;;;17.00;50.78;100745.72;5047988;28;20420;-68
2022/06/13 04:39:07;;;;;;;8.32;1.67;;;;;;;17.00;51.35;100745.72;5044706;28;20049;-69
2022/06/13 04:41:35;;;;;;;;;;;;;;;17.01;51.20;100741.25;5048770;28;20579;-68
2022/06/13 04:44:04;;;;;;;4.57;1.75;;;;;;;17.01;51.26;100747.44;5050840;28;19931;-69
2022/06/13 04:46:33;;;;;;;2.83;1.58;;;;;;;17.05;51.75;100748.97;5042680;28;20401;-68
2022/06/13 04:49:05;;;;;;;7.93;1.67;;;;;;;17.11;51.44;100743.22;5047916;28;20045;-68
2022/06/13 04:51:40;;;;;;;3.80;1.40;;;;;;;17.15;51.41;100746.53;5029295;28;20155;-68
2022/06/13 04:54:18;;;;;;;4.65;1.50;;;;;;;17.09;51.23;100721.03;5048162;28;20110;-68
2022/06/13 04:56:46;;;;;;;6.15;1.48;;;;;;;17.23;50.82;100740.63;5047509;28;20067;-68
2022/06/13 04:59:14;;;;;;;4.07;1.38;;;;;;;17.28;50.64;100744.72;5052273;28;20053;-68
2022/06/13 05:01:46;;;;;;;5.53;1.40;;;;;;;17.40;50.84;100740.31;5048925;28;20139;-69
2022/06/13 05:04:18;;;;;;;5.82;1.80;;;;;;;17.50;50.13;100741.38;5053081;28;20164;-68
2022/06/13 05:06:53;;;;;;;2.97;1.60;;;;;;;17.44;50.90;100733.81;5048477;28;20114;-68
2022/06/13 05:09:29;;;;;;;4.40;1.40;;;;;;;17.47;51.63;100750.50;5048818;28;20060;-69
2022/06/13 05:12:22;;;;;;;2.97;1.45;;;;;;;17.44;50.86;100745.38;5060359;28;20516;-67
2022/06/13 05:14:57;;;;;;;5.15;1.60;;;;;;;17.32;51.18;100732.81;5047731;28;20076;-68
2022/06/13 05:17:32;;;;;;;2.78;1.48;;;;;;;17.49;50.70;100747.72;5045707;28;20072;-67
2022/06/13 05:20:14;;;;;;;4.28;1.40;;;;;;;17.58;50.56;100748.91;5050909;28;20052;-68
2022/06/13 05:22:55;;;;;;;4.32;1.48;;;;;;;17.53;50.75;100749.22;5053174;28;20048;-67
2022/06/13 05:25:45;;;;;;;3.70;1.55;;;;;;;17.60;50.10;100752.31;5046496;28;20045;-67
2022/06/13 05:28:18;;;;;;;5.47;1.63;;;;;;;17.63;50.45;100752.94;5041929;28;20064;-68
2022/06/13 05:30:48;;;;;;;5.18;1.70;;;;;;;17.41;49.57;100745.59;5047530;28;20060;-67
2022/06/13 05:33:19;;;;;;;5.03;1.50;;;;;;;17.36;49.91;100746.84;5043985;28;20606;-67
2022/06/13 05:35:47;;;;;;;5.90;2.00;;;;;;;17.47;50.28;100774.59;5045915;28;20110;-67
2022/06/13 05:38:17;;;;;;;4.70;1.60;;;;;;;17.59;50.04;100772.91;5043127;28;20079;-68
2022/06/13 05:40:45;;;;;;;4.45;1.75;;;;;;;17.69;49.61;100773.13;5047529;28;20477;-69
2022/06/13 05:43:13;;;;;;;5.95;1.70;;;;;;;17.76;49.68;100764.56;5057391;28;20056;-68
2022/06/13 05:45:41;;;;;;;5.00;1.88;;;;;;;17.81;49.56;100778.47;5027622;28;20056;-69
2022/06/13 05:48:14;;;;;;;8.85;1.88;;;;;;;17.86;50.07;100767.44;5049871;28;20136;-67
2022/06/13 05:50:42;;;;;;;4.78;1.50;;;;;;;18.01;49.21;100768.16;5053748;28;20047;-68
2022/06/13 05:53:14;;;;;;;8.15;1.77;;;;;;;18.12;49.28;100774.44;5043380;28;20074;-67
2022/06/13 05:55:42;;;;;;;5.93;1.63;;;;;;;18.03;49.02;100775.13;5047157;28;20519;-67
2022/06/13 05:58:11;;;;;;;7.72;2.13;;;;;;;17.83;49.57;100752.44;5044839;28;20124;-67
2022/06/13 06:00:44;;;;;;;7.45;2.25;;;;;;;17.99;49.48;100768.25;5031329;28;20109;-68
2022/06/13 06:03:11;;;;;;;5.68;2.05;;;;;;;18.08;49.91;100769.44;5029147;28;20062;-68
2022/06/13 06:05:39;;;;;;;4.28;1.65;;;;;;;18.07;48.81;100759.69;5029192;28;20056;-70
2022/06/13 06:08:15;;;;;;;7.75;2.08;;;;;;;18.18;48.24;100771.34;5039394;28;20057;-67
2022/06/13 06:10:43;;;;;;;4.97;2.00;;;;;;;18.37;47.78;100776.22;5046370;28;20128;-68
2022/06/13 06:13:14;;;;;;;8.90;1.70;;;;;;;18.43;46.73;100773.06;5044471;28;20881;-67
2022/06/13 06:15:42;;;;;;;7.85;1.90;;;;;;;18.60;47.76;100771.00;5042671;28;20053;-68
2022/06/13 06:18:10;;;;;;;6.18;1.67;;;;;;;18.84;45.66;100769.16;5048481;28;20211;-68
2022/06/13 06:20:36;;;;;;;9.82;2.35;;;;;;;18.99;45.23;100769.84;5044456;28;20045;-68
2022/06/13 06:23:04;;;;;;;4.50;1.60;;;;;;;19.10;45.09;100770.72;5045500;28;20059;-70
2022/06/13 06:25:31;;;;;;;4.68;1.73;;;;;;;19.41;45.18;100771.03;5047688;28;20060;-68
2022/06/13 06:27:58;;;;;;;6.18;1.70;;;;;;;19.94;44.77;100772.22;5049628;28;20107;-68
2022/06/13 06:30:28;;;;;;;4.95;1.55;;;;;;;20.38;41.38;100774.03;5044354;28;20057;-68
2022/06/13 06:32:56;;;;;;;4.03;1.60;;;;;;;20.72;41.35;100776.63;5043399;28;20049;-66
2022/06/13 06:35:26;;;;;;;5.78;1.65;;;;;;;20.89;40.14;100773.38;5046037;28;20444;-69
2022/06/13 06:37:54;;;;;;;5.30;1.52;;;;;;;21.12;41.07;100783.06;5047013;28;20072;-67
2022/06/13 06:40:23;;;;;;;5.05;1.60;;;;;;;21.28;39.41;100783.50;5044300;28;20064;-68
2022/06/13 06:42:50;;;;;;;4.88;1.48;;;;;;;21.22;39.57;100789.41;5050145;28;20525;-67
2022/06/13 06:45:23;;;;;;;4.72;1.48;;;;;;;21.40;39.33;100778.91;5042218;28;20133;-68
2022/06/13 06:47:50;;;;;;;4.95;1.50;;;;;;;21.96;37.53;100771.25;5040789;28;20088;-68
2022/06/13 06:50:22;;;;;;;3.70;1.30;;;;;;;22.35;36.74;100780.34;5046782;28;20107;-68
2022/06/13 06:52:49;;;;;;;18.88;3.63;;;;;;;21.93;38.15;100776.06;5046600;28;20052;-68
2022/06/13 07:00:56;;;;;;;5.38;1.60;;;;;;;22.54;35.66;100779.53;5044884;28;20110;-67
2022/06/13 07:03:23;;;;;;;4.90;1.50;;;;;;;22.06;36.95;100779.41;5036048;28;20122;-68
2022/06/13 07:05:51;;;;;;;4.97;1.20;;;;;;;22.32;35.60;100780.63;5049120;28;20052;-68
2022/06/13 07:08:18;;;;;;;6.97;1.48;;;;;;;22.65;36.25;100779.44;5045005;28;20056;-69
2022/06/13 07:10:47;;;;;;;3.72;1.40;;;;;;;22.21;35.40;100761.00;5052730;28;20076;-69
2022/06/13 07:13:16;;;;;;;4.13;1.55;;;;;;;21.82;35.25;100784.25;5051715;28;20053;-67
2022/06/13 07:15:48;;;;;;;5.22;1.38;;;;;;;21.80;37.06;100787.06;5039615;28;20059;-67
2022/06/13 07:18:15;;;;;;;5.30;1.50;;;;;;;22.10;35.86;100783.53;5042435;28;20091;-67
2022/06/13 07:20:42;;;;;;;5.55;1.40;;;;;;;22.26;35.45;100785.72;5047173;28;20059;-68
2022/06/13 07:23:09;;;;;;;6.70;1.45;;;;;;;22.28;34.54;100791.84;5042898;28;20049;-68
2022/06/13 07:25:35;;;;;;;5.10;1.42;;;;;;;22.26;35.51;100793.81;5049482;28;20543;-67
2022/06/13 07:28:02;;;;;;;4.30;2.42;;;;;;;21.80;38.38;100800.56;5039321;28;20047;-67
2022/06/13 07:30:29;;;;;;;3.95;1.70;;;;;;;21.66;39.83;100800.91;5043119;28;20482;-68
2022/06/13 07:32:56;;;;;;;6.95;2.00;;;;;;;21.40;39.70;100805.00;5055916;28;20048;-67
2022/06/13 07:35:25;;;;;;;4.68;1.70;;;;;;;20.93;40.95;100802.63;5043153;28;20049;-69
2022/06/13 07:40:37;;;;;;;6.30;2.10;;;;;;;20.95;41.43;100810.53;5050615;28;20041;-68
2022/06/13 07:43:06;;;;;;;7.18;2.22;;;;;;;20.85;41.47;100801.53;5041906;28;20087;-68
2022/06/13 07:45:39;;;;;;;7.05;2.00;;;;;;;21.05;38.93;100813.34;5044176;28;20088;-68
2022/06/13 07:48:18;;;;;;;6.65;1.75;;;;;;;21.19;38.99;100807.63;5053171;28;20044;-68
2022/06/13 07:50:46;;;;;;;5.30;1.50;;;;;;;21.45;38.67;100813.53;5047871;28;20080;-68
2022/06/13 07:53:12;;;;;;;7.72;2.13;;;;;;;21.80;38.34;100805.09;5048213;28;20049;-70
2022/06/13 07:55:39;;;;;;;6.25;1.70;;;;;;;21.55;37.84;100804.53;5046209;28;20087;-68
2022/06/13 07:58:12;;;;;;;3.47;1.80;;;;;;;21.59;37.62;100805.09;5046851;28;20061;-68
2022/06/13 08:00:39;;;;;;;4.38;1.67;;;;;;;21.72;37.70;100813.84;5042773;28;20041;-68
2022/06/13 08:03:06;;;;;;;7.63;1.80;;;;;;;21.49;36.93;100786.19;5044557;28;20056;-71
2022/06/13 08:05:33;;;;;;;6.05;1.92;;;;;;;21.62;37.52;100815.63;5052164;28;20277;-68
2022/06/13 08:07:59;;;;;;;4.68;1.80;;;;;;;21.90;38.46;100809.53;5047105;28;20048;-69
2022/06/13 08:10:27;;;;;;;4.28;1.38;;;;;;;22.12;36.39;100822.03;5040850;28;20055;-68
2022/06/13 08:12:54;;;;;;;4.55;1.58;;;;;;;21.77;36.61;100818.81;5044377;28;20127;-67
2022/06/13 08:15:24;;;;;;;3.42;1.65;;;;;;;21.38;37.17;100809.66;5040980;28;20129;-68
2022/06/13 08:17:51;;;;;;;5.82;1.60;;;;;;;21.44;36.89;100827.97;5049808;28;20139;-68
2022/06/13 08:20:18;;;;;;;7.05;2.10;;;;;;;21.65;36.34;100820.75;5046304;28;20144;-68
2022/06/13 08:22:47;;;;;;;4.55;1.65;;;;;;;21.88;35.92;100811.50;5043966;28;20212;-68
2022/06/13 08:25:28;;;;;;;4.72;1.27;;;;;;;22.58;34.22;100824.16;5043618;28;20049;-70
2022/06/13 08:27:57;;;;;;;3.67;1.35;;;;;;;23.05;34.54;100833.34;5042886;28;20080;-69
2022/06/13 08:30:25;;;;;;;6.25;1.80;;;;;;;23.32;33.99;100826.34;5043516;28;20077;-68
2022/06/13 08:32:52;;;;;;;5.18;1.70;;;;;;;23.66;32.87;100833.03;5049326;28;20048;-69
2022/06/13 08:35:19;;;;;;;6.93;2.38;;;;;;;23.91;33.29;100828.84;5059778;28;20052;-68
2022/06/13 08:37:53;;;;;;;6.28;1.73;;;;;;;23.74;33.87;100807.97;5048012;28;20049;-68
2022/06/13 08:40:20;;;;;;;4.35;1.58;;;;;;;23.49;35.04;100830.19;5050060;28;20063;-70
2022/06/13 08:43:25;;;;;;;5.07;1.63;;;;;;;22.58;34.97;100837.66;5049994;28;20139;-68
2022/06/13 08:46:21;;;;;;;5.60;1.60;;;;;;;21.41;37.19;100847.94;5009804;28;20155;-70
2022/06/13 08:48:57;;;;;;;4.88;1.83;;;;;;;20.95;39.21;100853.63;5046938;28;20055;-68
2022/06/13 08:51:45;;;;;;;4.40;1.63;;;;;;;20.73;39.27;100849.19;5050036;28;20132;-68
2022/06/13 08:54:19;;;;;;;3.22;1.27;;;;;;;20.91;40.23;100853.03;5038967;28;20138;-68
2022/06/13 08:56:46;;;;;;;4.78;1.73;;;;;;;21.09;39.69;100847.97;5044195;28;20080;-68
2022/06/13 08:59:24;;;;;;;4.82;1.55;;;;;;;21.46;39.85;100853.81;5049560;28;20045;-68
2022/06/13 09:01:57;;;;;;;4.22;1.90;;;;;;;21.43;39.01;100845.13;5042384;28;21151;-70
2022/06/13 09:04:38;;;;;;;4.82;2.15;;;;;;;21.56;37.31;100853.91;5043574;28;20424;-67
2022/06/13 09:07:26;;;;;;;;;;;;;;;21.33;38.23;100866.63;5050723;28;20087;-69
2022/06/13 09:10:06;;;;;;;5.97;2.05;;;;;;;21.08;39.03;100851.63;5046961;28;19921;-67
2022/06/13 09:12:37;;;;;;;6.88;2.03;;;;;;;21.22;37.68;100840.59;5047404;28;20123;-67
2022/06/13 09:15:16;;;;;;;4.07;1.52;;;;;;;21.91;36.79;100851.69;5055327;28;20045;-68
2022/06/13 09:18:06;;;;;;;5.55;1.60;;;;;;;21.97;36.75;100845.78;5053043;28;20044;-67
2022/06/13 09:21:00;;;;;;;5.50;1.67;;;;;;;21.60;34.74;100866.09;5049608;28;20481;-67
2022/06/13 09:24:05;;;;;;;4.07;1.45;;;;;;;21.49;36.19;100860.78;5047429;28;20063;-66
2022/06/13 09:26:45;;;;;;;5.43;1.73;;;;;;;21.62;35.31;100864.13;5012325;28;20054;-68
2022/06/13 09:29:31;;;;;;;2.33;1.30;;;;;;;21.65;35.43;100855.78;5039030;28;20076;-68
2022/06/13 09:32:05;;;;;;;8.68;1.90;;;;;;;21.59;35.35;100865.25;5047556;28;20139;-67
2022/06/13 09:34:46;;;;;;;8.20;2.00;;;;;;;21.56;36.10;100856.59;5057873;28;20140;-68
2022/06/13 09:37:23;;;;;;;;;;;;;;;21.65;36.44;100864.72;5055096;28;21169;-67
2022/06/13 09:39:51;;;;;;;6.07;1.88;;;;;;;21.99;36.75;100869.91;5047430;28;19936;-67
2022/06/13 09:42:35;;;;;;;7.43;1.98;;;;;;;21.88;36.70;100865.44;5048879;28;20045;-67
2022/06/13 09:45:32;;;;;;;6.72;2.00;;;;;;;21.54;36.24;100874.72;5047372;28;20664;-68
2022/06/13 09:48:24;;;;;;;9.43;2.15;;;;;;;21.23;36.11;100877.31;5039061;28;20041;-67
2022/06/13 09:51:13;;;;;;;5.05;1.90;;;;;;;21.09;36.66;100877.59;5043758;28;20125;-69
2022/06/13 09:53:50;;;;;;;5.78;2.20;;;;;;;21.09;37.78;100861.44;5047896;28;20044;-67
2022/06/13 09:56:35;;;;;;;3.22;1.73;;;;;;;21.40;38.04;100869.66;5037844;28;20128;-68
2022/06/13 09:59:21;;;;;;;5.43;1.80;;;;;;;21.58;38.11;100857.28;5048379;28;20429;-68
2022/06/13 10:02:04;;;;;;;5.03;2.00;;;;;;;21.94;37.12;100847.88;5049472;28;20041;-68
2022/06/13 10:04:46;;;;;;;4.55;2.20;;;;;;;22.26;36.61;100861.25;5040820;28;20562;-68
2022/06/13 10:07:23;;;;;;;7.05;1.90;;;;;;;22.24;36.20;100861.38;5049251;28;20247;-68
2022/06/13 10:10:02;;;;;;;4.13;2.15;;;;;;;21.72;37.35;100861.53;5041272;28;20565;-69
2022/06/13 10:12:41;;;;;;;8.30;2.60;;;;;;;21.40;38.78;100864.28;5033304;28;20049;-70
2022/06/13 10:15:36;;;;;;;5.70;2.35;;;;;;;21.54;38.96;100861.25;5045101;28;20045;-69
2022/06/13 10:18:27;;;;;;;7.72;2.50;;;;;;;21.60;38.90;100840.00;5046015;28;20053;-67
2022/06/13 10:21:13;;;;;;;4.50;2.17;;;;;;;21.53;37.99;100859.53;5042831;28;20567;-68
2022/06/13 10:23:58;;;;;;;7.68;2.38;;;;;;;21.44;37.63;100863.00;5037374;28;20080;-69
2022/06/13 10:26:53;;;;;;;6.63;2.35;;;;;;;21.42;36.76;100854.19;5042931;28;20075;-68
2022/06/13 10:29:53;;;;;;;5.05;2.30;;;;;;;21.62;37.53;100867.69;5054851;28;20061;-68
2022/06/13 10:32:38;;;;;;;6.47;2.42;;;;;;;21.72;37.81;100866.91;5039361;28;20048;-68
2022/06/13 10:35:42;;;;;;;7.47;2.00;;;;;;;21.67;37.77;100862.75;5042055;28;20065;-68
2022/06/13 10:38:18;;;;;;;8.30;2.33;;;;;;;21.72;38.38;100858.81;5047198;28;20049;-67
2022/06/13 10:40:44;;;;;;;4.75;2.28;;;;;;;21.79;37.54;100854.59;5046008;28;20545;-68
2022/06/13 10:43:12;;;;;;;5.72;2.15;;;;;;;21.83;38.24;100854.22;5038242;28;20141;-68
2022/06/13 10:45:41;;;;;;;8.40;2.00;;;;;;;22.02;38.10;100861.59;5048523;28;20053;-70
2022/06/13 10:48:18;;;;;;;6.07;2.60;;;;;;;22.25;38.19;100862.25;5041134;28;20046;-68
2022/06/13 10:50:51;;;;;;;6.68;2.58;;;;;;;22.48;37.22;100858.38;5040818;28;20463;-69
2022/06/13 10:53:26;;;;;;;6.35;2.03;;;;;;;22.64;36.91;100853.31;5042994;28;20068;-69
2022/06/13 10:55:56;;;;;;;5.72;2.20;;;;;;;22.66;38.04;100854.03;5040902;28;20052;-68
2022/06/13 10:58:23;;;;;;;;;;;;;;;22.60;37.76;100856.41;5042681;28;20122;-69
2022/06/13 11:01:04;;;;;;;6.55;2.53;;;;;;;22.42;37.70;100848.13;5049340;28;19974;-67
2022/06/13 11:03:31;;;;;;;8.10;2.40;;;;;;;22.39;37.48;100851.94;5043701;28;20063;-69
2022/06/13 11:06:02;;;;;;;5.82;2.22;;;;;;;22.28;37.16;100859.28;5040777;28;20146;-68
2022/06/13 11:08:29;;;;;;;4.40;2.08;;;;;;;22.21;37.20;100855.41;5045000;28;20053;-67
2022/06/13 11:11:05;;;;;;;7.25;2.38;;;;;;;22.26;37.83;100859.41;5042590;28;20072;-68
2022/06/13 11:13:36;;;;;;;7.15;2.08;;;;;;;22.51;37.84;100852.69;5043424;28;20049;-68
2022/06/13 11:24:52;;;;;;;6.45;2.33;;;;;;;22.70;36.41;100847.34;5038766;28;20111;-68
2022/06/13 11:27:41;;;;;;;8.80;2.58;;;;;;;22.51;35.57;100858.06;5042863;28;20124;-67
2022/06/13 11:30:25;;;;;;;5.25;2.42;;;;;;;21.86;36.96;100851.25;5039031;28;20060;-69
2022/06/13 11:33:03;;;;;;;5.78;2.40;;;;;;;21.90;37.41;100855.38;5043541;28;20037;-67
2022/06/13 11:35:45;;;;;;;7.15;2.42;;;;;;;21.97;38.07;100851.16;5010688;28;20048;-68
2022/06/13 11:38:12;;;;;;;7.72;2.53;;;;;;;22.11;37.05;100849.97;5035553;28;20456;-69
2022/06/13 11:40:39;;;;;;;7.53;2.90;;;;;;;22.31;36.59;100851.78;5041174;28;20782;-68
2022/06/13 11:43:30;;;;;;;8.38;2.33;;;;;;;22.11;37.22;100855.38;5043122;28;20435;-68
2022/06/13 11:46:00;;;;;;;6.75;2.53;;;;;;;22.04;38.26;100862.28;5035224;28;20603;-67
2022/06/13 11:48:28;;;;;;;6.38;2.25;;;;;;;21.86;38.25;100855.78;5039615;28;20047;-68
2022/06/13 11:50:58;;;;;;;7.78;2.40;;;;;;;21.80;39.07;100867.94;5038074;28;20052;-68
2022/06/13 11:53:37;;;;;;;10.43;2.85;;;;;;;21.84;38.94;100864.00;5036218;28;20508;-68
2022/06/13 11:56:20;;;;;;;6.30;2.92;;;;;;;21.79;39.67;100844.66;5039547;28;20127;-68
2022/06/13 11:58:49;;;;;;;4.97;2.58;;;;;;;21.78;39.40;100869.91;5037036;28;20076;-67
2022/06/13 12:01:38;;;;;;;8.65;2.67;;;;;;;21.66;39.51;100873.69;5043199;28;20410;-67
2022/06/13 12:04:10;;;;;;;13.57;2.67;;;;;;;21.81;39.43;100883.13;5043801;28;20049;-68
2022/06/13 12:06:46;;;;;;;5.00;2.30;;;;;;;22.05;39.04;100872.94;5045075;28;20542;-69
2022/06/13 12:09:31;;;;;;;5.80;3.03;;;;;;;22.30;39.16;100876.19;5046205;28;20045;-69
2022/06/13 12:12:00;;;;;;;7.38;2.60;;;;;;;22.47;39.13;100856.66;5035160;28;20085;-69
2022/06/13 12:14:29;;;;;;;6.47;2.50;;;;;;;22.37;38.80;100858.44;5039326;28;20083;-69
2022/06/13 12:17:34;;;;;;;8.13;2.67;;;;;;;22.21;38.76;100864.34;5043336;28;20065;-68
2022/06/13 12:20:13;;;;;;;8.07;2.90;;;;;;;22.11;40.27;100860.78;5043874;28;20049;-69
2022/06/13 12:22:52;;;;;;;7.18;2.60;;;;;;;22.01;39.53;100849.94;5051288;28;20048;-68
2022/06/13 12:25:50;;;;;;;5.72;2.85;;;;;;;22.50;38.61;100847.44;5043208;28;20049;-68